createdAt,value
2022-09-19T00:01:16.532Z,11.90
2022-09-19T00:03:45.368Z,10.85
2022-09-19T00:06:14.937Z,9.73
2022-09-19T00:08:44.435Z,10.23
2022-09-19T00:11:12.429Z,11.48
2022-09-19T00:13:42.410Z,19.80
2022-09-19T00:16:09.072Z,12.65
2022-09-19T00:18:35.726Z,13.05
2022-09-19T00:21:02.366Z,14.80
2022-09-19T00:23:48.247Z,15.70
2022-09-19T00:26:19.753Z,17.85
2022-09-19T00:28:47.203Z,13.95
2022-09-19T00:31:21.203Z,12.60
2022-09-19T00:33:49.954Z,12.38
2022-09-19T00:36:17.812Z,19.13
2022-09-19T00:38:47.920Z,13.50
2022-09-19T00:41:27.553Z,15.85
2022-09-19T00:43:57.119Z,16.92
2022-09-19T00:46:26.665Z,16.95
2022-09-19T00:48:57.508Z,13.95
2022-09-19T00:51:34.651Z,12.98
2022-09-19T00:54:05.659Z,13.98
2022-09-19T00:56:33.910Z,14.68
2022-09-19T00:59:02.769Z,16.52
2022-09-19T01:01:29.743Z,11.73
2022-09-19T01:03:56.714Z,14.68
2022-09-19T01:06:49.308Z,13.48
2022-09-19T01:09:37.897Z,13.35
2022-09-19T01:12:47.695Z,13.23
2022-09-19T01:15:33.699Z,13.45
2022-09-19T01:18:02.489Z,12.82
2022-09-19T01:20:51.683Z,14.68
2022-09-19T01:23:40.305Z,9.75
2022-09-19T01:26:43.427Z,11.43
2022-09-19T01:29:20.510Z,14.90
2022-09-19T01:31:53.621Z,17.65
2022-09-19T01:34:32.271Z,15.73
2022-09-19T01:37:04.820Z,18.05
2022-09-19T01:39:37.696Z,16.95
2022-09-19T01:42:05.316Z,9.95
2022-09-19T01:44:32.323Z,13.57
2022-09-19T01:52:52.610Z,13.10
2022-09-19T01:55:41.471Z,13.98
2022-09-19T01:58:25.959Z,13.32
2022-09-19T02:01:17.376Z,15.32
2022-09-19T02:04:02.049Z,11.95
2022-09-19T02:06:44.523Z,14.85
2022-09-19T02:09:39.479Z,13.10
2022-09-19T02:12:08.643Z,10.45
2022-09-19T02:14:40.556Z,10.27
2022-09-19T02:17:17.614Z,15.18
2022-09-19T02:19:49.215Z,12.27
2022-09-19T02:22:25.416Z,11.10
2022-09-19T02:24:59.906Z,10.85
2022-09-19T02:27:36.214Z,11.55
2022-09-19T02:30:09.075Z,15.65
2022-09-19T02:32:47.858Z,13.73
2022-09-19T02:35:39.267Z,12.68
2022-09-19T02:38:26.585Z,15.00
2022-09-19T02:41:02.071Z,10.80
2022-09-19T02:44:02.587Z,14.38
2022-09-19T02:46:55.860Z,13.45
2022-09-19T02:49:48.039Z,16.23
2022-09-19T02:52:21.138Z,15.20
2022-09-19T02:54:54.287Z,9.75
2022-09-19T02:57:25.180Z,15.30
2022-09-19T02:59:59.555Z,10.18
2022-09-19T03:02:34.530Z,10.10
2022-09-19T03:05:12.039Z,15.88
2022-09-19T03:08:02.309Z,11.20
2022-09-19T03:10:33.016Z,13.98
2022-09-19T03:13:25.427Z,13.80
2022-09-19T03:16:07.977Z,14.00
2022-09-19T03:18:38.851Z,11.57
2022-09-19T03:21:09.842Z,13.30
2022-09-19T03:23:50.290Z,12.20
2022-09-19T03:26:26.434Z,13.85
2022-09-19T03:28:56.563Z,13.70
2022-09-19T03:31:27.076Z,12.23
2022-09-19T03:33:56.580Z,11.80
2022-09-19T03:36:25.867Z,12.80
2022-09-19T03:38:54.262Z,11.93
2022-09-19T03:41:24.074Z,14.93
2022-09-19T03:43:52.332Z,14.52
2022-09-19T03:46:23.546Z,9.70
2022-09-19T03:48:51.871Z,10.77
2022-09-19T03:51:19.534Z,5.60
2022-09-19T03:53:46.614Z,12.80
2022-09-19T03:56:16.054Z,15.90
2022-09-19T03:58:43.404Z,14.75
2022-09-19T04:01:14.410Z,17.38
2022-09-19T04:03:43.806Z,6.38
2022-09-19T04:06:11.470Z,14.45
2022-09-19T04:08:38.657Z,14.63
2022-09-19T04:11:06.483Z,16.40
2022-09-19T04:13:34.639Z,13.57
2022-09-19T04:16:08.073Z,16.63
2022-09-19T04:18:35.269Z,14.02
2022-09-19T04:21:04.309Z,16.20
2022-09-19T04:23:49.980Z,14.80
2022-09-19T04:29:20.376Z,11.80
2022-09-19T04:31:47.434Z,12.85
2022-09-19T04:36:52.769Z,16.95
2022-09-19T04:39:19.699Z,14.65
2022-09-19T04:41:46.438Z,13.88
2022-09-19T04:44:13.146Z,13.80
2022-09-19T04:46:58.607Z,11.63
2022-09-19T04:49:35.588Z,8.35
2022-09-19T04:52:03.590Z,10.65
2022-09-19T04:54:36.114Z,8.57
2022-09-19T04:57:06.278Z,14.90
2022-09-19T04:59:35.044Z,11.00
2022-09-19T05:02:08.089Z,14.30
2022-09-19T05:04:35.735Z,14.13
2022-09-19T05:07:03.149Z,10.27
2022-09-19T05:09:31.692Z,12.00
2022-09-19T05:12:05.731Z,9.73
2022-09-19T05:14:36.698Z,11.88
2022-09-19T05:17:04.370Z,17.10
2022-09-19T05:19:33.143Z,12.48
2022-09-19T05:22:00.051Z,12.40
2022-09-19T05:24:26.794Z,12.43
2022-09-19T05:29:21.811Z,8.00
2022-09-19T05:34:41.582Z,8.30
2022-09-19T05:37:20.541Z,10.60
2022-09-19T05:40:15.712Z,14.02
2022-09-19T05:42:48.015Z,11.07
2022-09-19T05:45:15.955Z,14.27
2022-09-19T05:47:43.464Z,11.77
2022-09-19T05:50:12.491Z,12.82
2022-09-19T05:52:59.798Z,13.35
2022-09-19T05:55:28.324Z,14.07
2022-09-19T05:58:25.471Z,13.63
2022-09-19T06:00:52.698Z,15.27
2022-09-19T06:05:51.859Z,12.70
2022-09-19T06:08:20.519Z,15.82
2022-09-19T06:10:50.101Z,11.00
2022-09-19T06:13:20.214Z,15.20
2022-09-19T06:15:47.632Z,12.15
2022-09-19T06:18:27.852Z,13.57
2022-09-19T06:21:01.228Z,11.60
2022-09-19T06:23:31.140Z,11.88
2022-09-19T06:25:57.785Z,12.80
2022-09-19T06:28:24.410Z,14.68
2022-09-19T06:31:04.283Z,16.73
2022-09-19T06:36:24.906Z,13.27
2022-09-19T06:38:51.975Z,10.15
2022-09-19T06:41:39.572Z,12.77
2022-09-19T06:44:19.000Z,9.10
2022-09-19T06:47:05.512Z,15.57
2022-09-19T06:49:53.479Z,14.00
2022-09-19T06:52:25.407Z,13.85
2022-09-19T06:54:53.008Z,12.98
2022-09-19T06:57:19.786Z,10.85
2022-09-19T06:59:46.424Z,10.55
2022-09-19T07:02:14.914Z,8.68
2022-09-19T07:04:41.667Z,7.00
2022-09-19T07:07:19.970Z,10.98
2022-09-19T07:09:50.811Z,8.93
2022-09-19T07:12:20.214Z,9.85
2022-09-19T07:14:49.210Z,10.02
2022-09-19T07:17:17.183Z,9.23
2022-09-19T07:19:45.935Z,10.23
2022-09-19T07:22:36.498Z,13.07
2022-09-19T07:25:18.641Z,9.35
2022-09-19T07:28:14.776Z,8.60
2022-09-19T07:30:44.386Z,8.93
2022-09-19T07:33:12.991Z,10.98
2022-09-19T07:35:42.186Z,10.85
2022-09-19T07:38:15.038Z,10.63
2022-09-19T07:41:02.441Z,7.53
2022-09-19T07:43:39.364Z,10.05
2022-09-19T07:46:17.334Z,13.10
2022-09-19T07:48:54.724Z,10.80
2022-09-19T07:51:28.838Z,9.65
2022-09-19T07:53:57.219Z,8.02
2022-09-19T07:56:24.928Z,8.90
2022-09-19T07:58:52.134Z,11.55
2022-09-19T08:01:19.420Z,6.78
2022-09-19T08:04:05.582Z,7.82
2022-09-19T08:06:42.294Z,6.95
2022-09-19T08:09:11.632Z,9.75
2022-09-19T08:11:58.091Z,8.98
2022-09-19T08:14:28.144Z,11.00
2022-09-19T08:16:55.617Z,6.28
2022-09-19T08:19:22.360Z,6.32
2022-09-19T08:21:50.067Z,11.77
2022-09-19T08:24:16.687Z,12.70
2022-09-19T08:29:10.812Z,11.65
2022-09-19T08:31:48.504Z,9.95
2022-09-19T08:34:16.027Z,10.00
2022-09-19T08:36:43.243Z,4.57
2022-09-19T08:39:09.966Z,6.57
2022-09-19T08:41:52.134Z,4.72
2022-09-19T08:44:45.596Z,5.10
2022-09-19T08:47:19.650Z,5.70
2022-09-19T08:50:27.040Z,5.22
2022-09-19T08:52:59.660Z,5.10
2022-09-19T08:55:33.348Z,7.93
2022-09-19T08:58:18.491Z,8.32
2022-09-19T09:01:08.468Z,12.65
2022-09-19T09:04:03.882Z,5.85
2022-09-19T09:06:59.561Z,9.07
2022-09-19T09:09:58.825Z,5.78
2022-09-19T09:12:45.428Z,9.18
2022-09-19T09:15:49.279Z,9.88
2022-09-19T09:18:37.831Z,6.90
2022-09-19T09:21:41.732Z,5.57
2022-09-19T09:24:33.031Z,9.68
2022-09-19T09:27:26.535Z,10.27
2022-09-19T09:30:08.519Z,10.10
2022-09-19T09:32:52.596Z,10.93
2022-09-19T09:35:27.820Z,10.32
2022-09-19T09:38:05.633Z,12.82
2022-09-19T09:41:12.310Z,6.35
2022-09-19T09:44:25.575Z,8.95
2022-09-19T09:47:02.558Z,6.88
2022-09-19T09:49:34.472Z,6.53
2022-09-19T09:52:37.799Z,5.97
2022-09-19T09:55:46.532Z,4.57
2022-09-19T09:58:34.703Z,8.27
2022-09-19T10:01:43.296Z,8.55
2022-09-19T10:04:21.769Z,5.50
2022-09-19T10:07:12.020Z,7.60
2022-09-19T10:09:50.961Z,10.32
2022-09-19T10:15:20.368Z,10.25
2022-09-19T10:18:06.048Z,4.47
2022-09-19T10:20:43.334Z,6.43
2022-09-19T10:23:31.289Z,4.18
2022-09-19T10:26:15.900Z,2.10
2022-09-19T10:28:57.844Z,4.22
2022-09-19T10:31:48.270Z,5.30
2022-09-19T10:34:37.326Z,1.80
2022-09-19T10:37:13.998Z,3.00
2022-09-19T10:39:47.173Z,9.35
2022-09-19T10:42:42.060Z,4.25
2022-09-19T10:45:19.411Z,6.43
2022-09-19T10:47:48.952Z,5.45
2022-09-19T10:50:20.193Z,5.40
2022-09-19T10:53:02.007Z,5.13
2022-09-19T10:55:30.144Z,4.10
2022-09-19T10:58:13.704Z,3.35
2022-09-19T11:00:58.533Z,6.30
2022-09-19T11:03:33.283Z,6.85
2022-09-19T11:06:14.011Z,7.03
2022-09-19T11:08:52.362Z,5.35
2022-09-19T11:11:41.602Z,4.40
2022-09-19T11:14:19.149Z,4.50
2022-09-19T11:17:11.207Z,9.85
2022-09-19T11:19:55.226Z,7.80
2022-09-19T11:22:57.832Z,5.20
2022-09-19T11:25:40.758Z,4.10
2022-09-19T11:28:45.567Z,4.47
2022-09-19T11:34:54.403Z,4.35
2022-09-19T11:37:26.844Z,7.40
2022-09-19T11:40:02.110Z,5.47
2022-09-19T11:42:42.435Z,4.97
2022-09-19T11:45:14.438Z,4.63
2022-09-19T11:48:17.541Z,8.60
2022-09-19T11:51:04.247Z,4.85
2022-09-19T11:53:49.479Z,7.55
2022-09-19T11:56:36.246Z,8.60
2022-09-19T11:59:18.616Z,9.27
2022-09-19T12:02:29.300Z,2.90
2022-09-19T12:05:41.016Z,7.47
2022-09-19T12:08:33.375Z,7.60
2022-09-19T12:11:13.930Z,7.15
2022-09-19T12:13:46.004Z,4.57
2022-09-19T12:16:40.606Z,5.68
2022-09-19T12:19:14.243Z,8.50
2022-09-19T12:21:50.411Z,6.97
2022-09-19T12:24:47.270Z,7.47
2022-09-19T12:27:20.998Z,13.98
2022-09-19T12:30:16.283Z,6.97
2022-09-19T12:32:57.178Z,5.93
2022-09-19T12:35:44.402Z,3.88
2022-09-19T12:38:26.050Z,10.38
2022-09-19T12:41:23.941Z,8.40
2022-09-19T12:44:28.206Z,7.57
2022-09-19T12:47:08.478Z,4.50
2022-09-19T12:50:01.431Z,5.55
2022-09-19T12:52:34.491Z,8.57
2022-09-19T12:58:07.304Z,5.65
2022-09-19T13:00:40.094Z,4.60
2022-09-19T13:03:26.434Z,5.15
2022-09-19T13:06:06.961Z,7.03
2022-09-19T13:08:41.715Z,7.40
2022-09-19T13:11:26.311Z,5.18
2022-09-19T13:14:12.194Z,4.85
2022-09-19T13:17:00.203Z,5.05
2022-09-19T13:19:58.000Z,4.75
2022-09-19T13:22:44.016Z,2.45
2022-09-19T13:25:18.166Z,6.55
2022-09-19T13:27:46.503Z,6.25
2022-09-19T13:30:49.605Z,4.40
2022-09-19T13:33:26.930Z,4.07
2022-09-19T13:35:54.528Z,3.72
2022-09-19T13:38:26.680Z,6.22
2022-09-19T13:41:10.920Z,6.13
2022-09-19T13:44:07.479Z,4.43
2022-09-19T13:46:57.283Z,4.30
2022-09-19T13:49:32.643Z,4.18
2022-09-19T13:52:15.779Z,6.22
2022-09-19T13:54:51.294Z,4.03
2022-09-19T13:57:30.006Z,4.97
2022-09-19T14:00:01.740Z,6.63
2022-09-19T14:02:40.824Z,5.78
2022-09-19T14:05:17.535Z,7.70
2022-09-19T14:10:49.791Z,2.92
2022-09-19T14:13:25.281Z,5.20
2022-09-19T14:16:01.217Z,5.00
2022-09-19T14:18:33.269Z,7.43
2022-09-19T14:21:02.877Z,4.78
2022-09-19T14:23:43.712Z,6.03
2022-09-19T14:26:20.890Z,6.05
2022-09-19T14:29:17.427Z,8.18
2022-09-19T14:32:12.135Z,8.82
2022-09-19T14:34:55.261Z,7.78
2022-09-19T14:37:47.588Z,9.73
2022-09-19T14:40:39.796Z,8.38
2022-09-19T14:43:28.443Z,8.52
2022-09-19T14:46:17.383Z,10.05
2022-09-19T14:48:54.791Z,12.80
2022-09-19T14:51:31.931Z,10.95
2022-09-19T14:54:16.995Z,9.70
2022-09-19T14:57:01.595Z,13.90
2022-09-19T14:59:33.311Z,9.30
2022-09-19T15:02:22.632Z,7.53
2022-09-19T15:04:58.887Z,10.82
2022-09-19T15:07:30.570Z,13.63
2022-09-19T15:09:57.865Z,12.00
2022-09-19T15:12:31.543Z,10.10
2022-09-19T15:14:59.195Z,9.38
2022-09-19T15:17:32.706Z,10.23
2022-09-19T15:20:13.150Z,11.82
2022-09-19T15:22:53.516Z,12.00
2022-09-19T15:25:29.915Z,13.73
2022-09-19T15:28:00.194Z,10.25
2022-09-19T15:30:32.208Z,11.27
2022-09-19T15:33:11.574Z,12.27
2022-09-19T15:35:42.502Z,10.38
2022-09-19T15:38:19.287Z,7.65
2022-09-19T15:40:46.595Z,8.50
2022-09-19T15:43:14.400Z,11.82
2022-09-19T15:45:47.093Z,10.20
2022-09-19T15:48:21.342Z,8.98
2022-09-19T15:50:53.903Z,8.05
2022-09-19T15:53:38.795Z,9.18
2022-09-19T15:56:15.534Z,8.18
2022-09-19T15:58:59.164Z,11.27
2022-09-19T16:01:29.626Z,8.60
2022-09-19T16:04:00.818Z,10.02
2022-09-19T16:07:01.244Z,10.70
2022-09-19T16:09:34.802Z,11.25
2022-09-19T16:12:03.249Z,7.22
2022-09-19T16:14:43.071Z,9.48
2022-09-19T16:17:20.257Z,10.77
2022-09-19T16:19:47.814Z,9.27
2022-09-19T16:22:19.384Z,12.73
2022-09-19T16:25:02.315Z,7.93
2022-09-19T16:27:32.352Z,8.15
2022-09-19T16:30:02.239Z,10.52
2022-09-19T16:32:30.837Z,9.70
2022-09-19T16:35:01.657Z,9.57
2022-09-19T16:37:40.075Z,6.13
2022-09-19T16:40:27.049Z,11.15
2022-09-19T16:42:54.542Z,7.05
2022-09-19T16:45:41.334Z,6.25
2022-09-19T16:48:08.760Z,8.75
2022-09-19T16:50:40.872Z,8.40
2022-09-19T16:53:13.661Z,9.90
2022-09-19T16:55:42.356Z,10.90
2022-09-19T16:58:14.492Z,8.75
2022-09-19T17:00:42.105Z,7.28
2022-09-19T17:03:10.776Z,10.73
2022-09-19T17:05:39.141Z,5.38
2022-09-19T17:08:07.110Z,6.60
2022-09-19T17:10:36.196Z,12.50
2022-09-19T17:13:02.952Z,10.95
2022-09-19T17:15:44.418Z,7.60
2022-09-19T17:18:12.233Z,10.77
2022-09-19T17:20:40.616Z,8.82
2022-09-19T17:23:08.269Z,6.32
2022-09-19T17:25:47.822Z,13.02
2022-09-19T17:30:45.054Z,7.50
2022-09-19T17:33:13.168Z,8.57
2022-09-19T17:35:41.420Z,10.00
2022-09-19T17:38:08.413Z,9.63
2022-09-19T17:40:37.623Z,9.98
2022-09-19T17:43:06.335Z,8.30
2022-09-19T17:45:33.885Z,13.30
2022-09-19T17:48:01.643Z,15.73
2022-09-19T17:50:30.421Z,9.18
2022-09-19T17:52:57.913Z,7.35
2022-09-19T17:55:24.676Z,9.30
2022-09-19T18:00:18.522Z,6.15
2022-09-19T18:03:04.268Z,10.48
2022-09-19T18:08:00.338Z,6.85
2022-09-19T18:10:28.700Z,10.35
2022-09-19T18:12:56.705Z,10.10
2022-09-19T18:15:28.432Z,8.50
2022-09-19T18:17:57.137Z,12.18
2022-09-19T18:20:27.326Z,9.55
2022-09-19T18:22:54.142Z,8.48
2022-09-19T18:27:48.124Z,10.63
2022-09-19T18:30:16.428Z,9.68
2022-09-19T18:32:43.735Z,9.45
2022-09-19T18:35:15.035Z,8.32
2022-09-19T18:37:43.041Z,7.85
2022-09-19T18:40:11.795Z,10.30
2022-09-19T18:42:39.347Z,10.95
2022-09-19T18:45:07.742Z,11.85
2022-09-19T18:47:35.548Z,14.90
2022-09-19T18:50:03.271Z,11.75
2022-09-19T18:52:30.445Z,10.45
2022-09-19T18:54:57.116Z,10.38
2022-09-19T18:57:23.796Z,8.35
2022-09-19T18:59:50.546Z,8.52
2022-09-19T19:02:17.337Z,9.85
2022-09-19T19:07:10.712Z,9.52
2022-09-19T19:09:37.424Z,10.93
2022-09-19T19:12:30.348Z,8.95
2022-09-19T19:14:55.895Z,8.75
2022-09-19T19:17:23.720Z,9.95
2022-09-19T19:19:50.770Z,8.93
2022-09-19T19:22:17.612Z,7.40
2022-09-19T19:24:44.254Z,8.25
2022-09-19T19:27:12.014Z,9.00
2022-09-19T19:29:38.902Z,13.43
2022-09-19T19:34:32.383Z,11.93
2022-09-19T19:36:59.135Z,10.82
2022-09-19T19:39:25.777Z,5.50
2022-09-19T19:41:52.366Z,10.63
2022-09-19T19:44:20.206Z,8.13
2022-09-19T19:46:46.795Z,7.88
2022-09-19T19:49:13.904Z,9.85
2022-09-19T19:51:42.724Z,10.25
2022-09-19T19:54:12.265Z,5.90
2022-09-19T19:56:39.076Z,12.80
2022-09-19T19:59:07.512Z,11.70
2022-09-19T20:01:37.108Z,8.85
2022-09-19T20:04:08.016Z,10.15
2022-09-19T20:06:37.461Z,10.25
2022-09-19T20:09:06.175Z,12.18
2022-09-19T20:11:33.695Z,5.53
2022-09-19T20:14:03.169Z,9.85
2022-09-19T20:16:35.773Z,11.65
2022-09-19T20:19:05.144Z,10.63
2022-09-19T20:21:35.312Z,11.52
2022-09-19T20:24:03.203Z,9.90
2022-09-19T20:26:34.148Z,9.68
2022-09-19T20:29:02.095Z,10.00
2022-09-19T20:31:33.608Z,6.70
2022-09-19T20:34:05.047Z,14.25
2022-09-19T20:36:34.681Z,10.75
2022-09-19T20:39:01.292Z,8.90
2022-09-19T20:41:27.984Z,13.27
2022-09-19T20:43:55.800Z,10.82
2022-09-19T20:46:23.194Z,9.95
2022-09-19T20:48:50.229Z,9.10
2022-09-19T20:53:54.088Z,12.18
2022-09-19T20:56:22.968Z,10.52
2022-09-19T20:58:54.800Z,8.40
2022-09-19T21:01:23.727Z,14.82
2022-09-19T21:03:51.451Z,10.38
2022-09-19T21:06:18.687Z,10.30
2022-09-19T21:08:46.742Z,9.07
2022-09-19T21:11:14.960Z,11.05
2022-09-19T21:13:44.250Z,9.20
2022-09-19T21:16:16.701Z,11.75
2022-09-19T21:18:47.788Z,7.70
2022-09-19T21:21:17.090Z,9.32
2022-09-19T21:23:44.192Z,12.18
2022-09-19T21:26:13.300Z,10.32
2022-09-19T21:28:41.807Z,8.82
2022-09-19T21:31:14.119Z,15.23
2022-09-19T21:33:41.008Z,6.47
2022-09-19T21:36:08.458Z,8.38
2022-09-19T21:38:35.795Z,8.00
2022-09-19T21:41:11.407Z,6.20
2022-09-19T21:43:43.288Z,8.80
2022-09-19T21:46:12.538Z,9.80
2022-09-19T21:48:41.057Z,8.10
2022-09-19T21:51:11.628Z,12.93
2022-09-19T21:53:38.605Z,6.97
2022-09-19T21:56:05.859Z,9.13
2022-09-19T21:58:32.951Z,8.63
2022-09-19T22:01:00.239Z,14.70
2022-09-19T22:03:28.938Z,6.30
2022-09-19T22:06:00.124Z,9.90
2022-09-19T22:08:31.504Z,8.23
2022-09-19T22:10:59.881Z,9.52
2022-09-19T22:13:27.971Z,10.15
2022-09-19T22:15:59.258Z,10.07
2022-09-19T22:18:27.144Z,11.55
2022-09-19T22:20:54.724Z,13.18
2022-09-19T22:23:22.175Z,13.02
2022-09-19T22:25:48.841Z,8.88
2022-09-19T22:28:15.875Z,9.60
2022-09-19T22:30:42.484Z,10.45
2022-09-19T22:33:09.152Z,6.50
2022-09-19T22:35:35.734Z,9.15
2022-09-19T22:38:02.376Z,9.73
2022-09-19T22:40:32.146Z,9.50
2022-09-19T22:42:59.471Z,7.28
2022-09-19T22:45:26.069Z,8.32
2022-09-19T22:47:52.763Z,9.38
2022-09-19T22:50:19.408Z,9.43
2022-09-19T22:52:46.075Z,9.27
2022-09-19T22:55:13.087Z,9.10
2022-09-19T22:57:39.735Z,5.68
2022-09-19T23:00:07.767Z,9.48
2022-09-19T23:02:35.335Z,9.00
2022-09-19T23:05:02.098Z,8.88
2022-09-19T23:07:28.861Z,13.70
2022-09-19T23:09:56.272Z,8.18
2022-09-19T23:12:22.900Z,14.93
2022-09-19T23:14:49.483Z,9.10
2022-09-19T23:17:16.079Z,9.52
2022-09-19T23:19:42.847Z,9.32
2022-09-19T23:22:09.514Z,9.27
2022-09-19T23:24:36.166Z,5.82
2022-09-19T23:27:02.967Z,10.48
2022-09-19T23:29:32.090Z,10.30
2022-09-19T23:31:58.835Z,8.65
2022-09-19T23:34:25.575Z,8.13
2022-09-19T23:36:54.490Z,7.65
2022-09-19T23:39:21.279Z,7.40
2022-09-19T23:41:47.907Z,12.07
2022-09-19T23:44:14.580Z,5.68
2022-09-19T23:46:41.169Z,11.82
2022-09-19T23:49:08.353Z,8.23
2022-09-19T23:51:35.319Z,8.70
2022-09-19T23:54:02.758Z,9.35
2022-09-19T23:56:31.306Z,8.27
2022-09-19T23:58:59.084Z,15.35
